createdAt,value
2023-02-16T00:00:23.225Z,5.20
2023-02-16T00:02:50.505Z,5.20
2023-02-16T00:05:28.650Z,5.30
2023-02-16T00:07:57.136Z,5.30
2023-02-16T00:10:26.717Z,5.40
2023-02-16T00:13:12.306Z,5.40
2023-02-16T00:15:40.476Z,5.50
2023-02-16T00:18:19.783Z,5.40
2023-02-16T00:20:48.713Z,5.40
2023-02-16T00:23:16.204Z,5.40
2023-02-16T00:25:43.683Z,5.30
2023-02-16T00:28:18.058Z,5.30
2023-02-16T00:30:45.962Z,5.30
2023-02-16T00:33:20.027Z,5.30
2023-02-16T00:35:50.078Z,5.20
2023-02-16T00:38:17.391Z,5.20
2023-02-16T00:40:44.818Z,5.20
2023-02-16T00:43:28.453Z,5.20
2023-02-16T00:45:56.777Z,5.20
2023-02-16T00:48:25.037Z,5.20
2023-02-16T00:50:54.233Z,5.20
2023-02-16T00:53:21.580Z,5.20
2023-02-16T00:55:48.840Z,5.20
2023-02-16T00:58:20.969Z,5.10
2023-02-16T01:00:52.561Z,5.00
2023-02-16T01:03:24.243Z,5.00
2023-02-16T01:06:12.067Z,5.00
2023-02-16T01:08:57.814Z,5.00
2023-02-16T01:11:26.790Z,5.00
2023-02-16T01:13:56.586Z,4.90
2023-02-16T01:16:38.592Z,4.80
2023-02-16T01:19:06.743Z,4.70
2023-02-16T01:21:33.999Z,4.70
2023-02-16T01:24:02.535Z,4.70
2023-02-16T01:26:32.386Z,4.60
2023-02-16T01:29:02.129Z,4.60
2023-02-16T01:31:29.625Z,4.70
2023-02-16T01:33:56.835Z,4.70
2023-02-16T01:36:31.681Z,4.70
2023-02-16T01:38:59.468Z,4.70
2023-02-16T01:41:29.560Z,4.70
2023-02-16T01:44:05.736Z,4.70
2023-02-16T01:46:51.811Z,4.60
2023-02-16T01:49:21.277Z,4.60
2023-02-16T01:52:27.564Z,4.50
2023-02-16T01:55:01.507Z,4.60
2023-02-16T01:57:37.629Z,4.60
2023-02-16T02:00:12.434Z,4.60
2023-02-16T02:02:47.142Z,4.70
2023-02-16T02:05:39.666Z,4.80
2023-02-16T02:08:26.964Z,4.90
2023-02-16T02:11:09.809Z,4.90
2023-02-16T02:13:42.938Z,4.90
2023-02-16T02:16:30.632Z,4.90
2023-02-16T02:18:58.593Z,4.90
2023-02-16T02:22:02.074Z,4.90
2023-02-16T02:24:40.932Z,4.90
2023-02-16T02:27:16.264Z,4.70
2023-02-16T02:30:09.318Z,4.60
2023-02-16T02:33:08.055Z,4.50
2023-02-16T02:35:45.111Z,4.40
2023-02-16T02:38:30.825Z,4.50
2023-02-16T02:41:11.664Z,4.40
2023-02-16T02:43:45.277Z,4.50
2023-02-16T02:46:32.711Z,4.60
2023-02-16T02:48:59.997Z,4.60
2023-02-16T02:51:29.908Z,4.70
2023-02-16T02:54:33.346Z,4.70
2023-02-16T02:57:44.555Z,4.60
2023-02-16T03:00:47.908Z,4.60
2023-02-16T03:03:33.191Z,4.50
2023-02-16T03:06:20.006Z,4.40
2023-02-16T03:08:51.877Z,4.20
2023-02-16T03:11:42.734Z,4.20
2023-02-16T03:14:16.323Z,4.20
2023-02-16T03:17:15.437Z,4.10
2023-02-16T03:20:04.083Z,4.10
2023-02-16T03:22:51.681Z,4.20
2023-02-16T03:25:38.082Z,4.20
2023-02-16T03:28:26.483Z,4.20
2023-02-16T03:30:55.439Z,4.20
2023-02-16T03:33:24.335Z,4.30
2023-02-16T03:35:52.306Z,4.40
2023-02-16T03:38:19.916Z,4.30
2023-02-16T03:40:49.954Z,4.30
2023-02-16T03:43:17.166Z,4.20
2023-02-16T03:45:45.420Z,4.20
2023-02-16T03:48:13.277Z,4.10
2023-02-16T03:50:40.549Z,4.10
2023-02-16T03:53:07.978Z,4.00
2023-02-16T03:55:46.707Z,3.90
2023-02-16T03:58:17.623Z,3.90
2023-02-16T04:00:44.832Z,3.80
2023-02-16T04:03:13.142Z,3.80
2023-02-16T04:05:40.804Z,3.70
2023-02-16T04:08:09.194Z,3.70
2023-02-16T04:10:37.257Z,3.70
2023-02-16T04:13:04.718Z,3.70
2023-02-16T04:15:32.086Z,3.60
2023-02-16T04:17:59.952Z,3.60
2023-02-16T04:20:30.113Z,3.50
2023-02-16T04:22:57.585Z,3.50
2023-02-16T04:25:25.305Z,3.50
2023-02-16T04:27:53.547Z,3.50
2023-02-16T04:30:24.578Z,3.50
2023-02-16T04:32:52.143Z,3.50
2023-02-16T04:35:19.687Z,3.60
2023-02-16T04:37:47.518Z,3.60
2023-02-16T04:40:16.694Z,3.60
2023-02-16T04:42:44.953Z,3.70
2023-02-16T04:45:12.786Z,3.80
2023-02-16T04:47:40.042Z,3.80
2023-02-16T04:50:07.815Z,3.70
2023-02-16T04:52:36.828Z,3.70
2023-02-16T04:55:05.663Z,3.70
2023-02-16T04:57:33.317Z,3.70
2023-02-16T05:00:00.544Z,3.70
2023-02-16T05:02:27.890Z,3.60
2023-02-16T05:04:55.099Z,3.50
2023-02-16T05:07:22.340Z,3.50
2023-02-16T05:09:51.941Z,3.40
2023-02-16T05:12:37.709Z,3.40
2023-02-16T05:15:06.232Z,3.40
2023-02-16T05:17:33.488Z,3.30
2023-02-16T05:20:01.937Z,3.30
2023-02-16T05:22:33.586Z,3.30
2023-02-16T05:25:01.998Z,3.30
2023-02-16T05:27:31.329Z,3.20
2023-02-16T05:29:59.468Z,3.20
2023-02-16T05:32:27.198Z,3.20
2023-02-16T05:34:54.696Z,3.20
2023-02-16T05:37:21.965Z,3.20
2023-02-16T05:39:49.412Z,3.20
2023-02-16T05:42:16.680Z,3.20
2023-02-16T05:44:44.305Z,3.20
2023-02-16T05:47:11.587Z,3.10
2023-02-16T05:49:38.768Z,3.10
2023-02-16T05:52:06.151Z,3.10
2023-02-16T05:54:33.641Z,3.20
2023-02-16T05:57:01.121Z,3.30
2023-02-16T05:59:28.368Z,3.20
2023-02-16T06:01:55.633Z,3.20
2023-02-16T06:04:22.969Z,3.20
2023-02-16T06:06:50.561Z,3.20
2023-02-16T06:09:18.077Z,3.30
2023-02-16T06:11:45.434Z,3.30
2023-02-16T06:14:18.823Z,3.30
2023-02-16T06:16:49.278Z,3.50
2023-02-16T06:19:18.983Z,3.60
2023-02-16T06:21:47.124Z,3.60
2023-02-16T06:24:15.236Z,3.50
2023-02-16T06:26:42.705Z,3.50
2023-02-16T06:29:10.767Z,3.50
2023-02-16T06:31:38.292Z,3.40
2023-02-16T06:34:06.515Z,3.30
2023-02-16T06:36:34.345Z,3.20
2023-02-16T06:39:01.641Z,3.30
2023-02-16T06:41:32.125Z,3.30
2023-02-16T06:44:07.215Z,3.30
2023-02-16T06:46:35.055Z,3.30
2023-02-16T06:49:02.738Z,3.40
2023-02-16T06:51:30.617Z,3.40
2023-02-16T06:53:58.259Z,3.50
2023-02-16T06:56:25.559Z,3.50
2023-02-16T06:58:52.832Z,3.50
2023-02-16T07:01:23.398Z,3.50
2023-02-16T07:03:52.262Z,3.60
2023-02-16T07:06:20.437Z,3.50
2023-02-16T07:08:47.583Z,3.70
2023-02-16T07:11:15.176Z,3.70
2023-02-16T07:13:42.386Z,3.80
2023-02-16T07:16:10.346Z,3.90
2023-02-16T07:18:38.354Z,4.00
2023-02-16T07:21:06.957Z,4.10
2023-02-16T07:23:34.456Z,4.10
2023-02-16T07:26:01.948Z,4.20
2023-02-16T07:28:29.254Z,4.20
2023-02-16T07:30:56.519Z,4.30
2023-02-16T07:33:24.104Z,4.30
2023-02-16T07:35:51.568Z,4.20
2023-02-16T07:38:18.861Z,4.20
2023-02-16T07:40:46.078Z,4.20
2023-02-16T07:43:13.370Z,4.20
2023-02-16T07:45:40.563Z,4.20
2023-02-16T07:48:07.957Z,4.30
2023-02-16T07:50:37.205Z,4.40
2023-02-16T07:53:05.321Z,4.40
2023-02-16T07:55:32.559Z,4.40
2023-02-16T07:58:00.233Z,4.50
2023-02-16T08:00:27.657Z,4.40
2023-02-16T08:02:55.190Z,4.50
2023-02-16T08:05:23.009Z,4.50
2023-02-16T08:07:50.233Z,4.60
2023-02-16T08:10:17.789Z,4.60
2023-02-16T08:12:45.037Z,4.70
2023-02-16T08:15:12.440Z,4.80
2023-02-16T08:17:39.862Z,4.80
2023-02-16T08:20:09.634Z,5.00
2023-02-16T08:22:37.629Z,5.10
2023-02-16T08:25:07.004Z,5.20
2023-02-16T08:27:34.890Z,5.20
2023-02-16T08:30:02.289Z,5.30
2023-02-16T08:32:30.360Z,5.40
2023-02-16T08:34:57.645Z,5.40
2023-02-16T08:37:25.115Z,5.50
2023-02-16T08:39:52.346Z,5.50
2023-02-16T08:42:19.675Z,5.50
2023-02-16T08:44:47.146Z,5.50
2023-02-16T08:47:16.893Z,5.60
2023-02-16T08:49:44.639Z,5.60
2023-02-16T08:52:12.492Z,5.70
2023-02-16T08:54:40.356Z,5.70
2023-02-16T08:57:07.726Z,5.80
2023-02-16T08:59:35.571Z,5.90
2023-02-16T09:02:03.472Z,6.00
2023-02-16T09:04:30.826Z,6.00
2023-02-16T09:06:59.598Z,6.10
2023-02-16T09:09:27.735Z,6.20
2023-02-16T09:11:55.013Z,6.20
2023-02-16T09:14:23.195Z,6.30
2023-02-16T09:16:50.659Z,6.30
2023-02-16T09:19:20.671Z,6.40
2023-02-16T09:21:50.834Z,6.50
2023-02-16T09:24:19.412Z,6.50
2023-02-16T09:26:46.709Z,6.60
2023-02-16T09:29:14.284Z,6.60
2023-02-16T09:31:44.501Z,6.70
2023-02-16T09:34:20.285Z,6.70
2023-02-16T09:36:48.377Z,6.80
2023-02-16T09:39:17.141Z,6.80
2023-02-16T09:42:08.727Z,6.90
2023-02-16T09:44:38.032Z,6.90
2023-02-16T09:47:21.018Z,7.00
2023-02-16T09:49:49.498Z,7.00
2023-02-16T09:52:40.546Z,7.10
2023-02-16T09:55:16.266Z,7.10
2023-02-16T09:58:08.275Z,7.10
2023-02-16T10:00:51.045Z,7.30
2023-02-16T10:03:42.162Z,7.30
2023-02-16T10:06:28.321Z,7.30
2023-02-16T10:09:00.515Z,7.40
2023-02-16T10:11:54.453Z,7.40
2023-02-16T10:14:42.417Z,7.50
2023-02-16T10:17:12.511Z,7.60
2023-02-16T10:19:45.940Z,7.60
2023-02-16T10:22:23.587Z,7.60
2023-02-16T10:25:12.208Z,7.70
2023-02-16T10:27:45.268Z,7.80
2023-02-16T10:30:17.479Z,7.80
2023-02-16T10:33:15.784Z,7.90
2023-02-16T10:35:43.022Z,7.90
2023-02-16T10:38:29.883Z,7.90
2023-02-16T10:41:31.563Z,8.00
2023-02-16T10:44:19.960Z,8.00
2023-02-16T10:46:55.684Z,8.10
2023-02-16T10:49:24.665Z,8.20
2023-02-16T10:51:54.865Z,8.20
2023-02-16T10:54:25.020Z,8.20
2023-02-16T10:57:07.586Z,8.30
2023-02-16T10:59:39.012Z,8.30
2023-02-16T11:02:27.732Z,8.40
2023-02-16T11:04:59.526Z,8.50
2023-02-16T11:07:29.230Z,8.60
2023-02-16T11:10:00.956Z,8.60
2023-02-16T11:12:28.622Z,8.70
2023-02-16T11:15:04.706Z,8.70
2023-02-16T11:17:47.398Z,8.70
2023-02-16T11:20:33.798Z,8.80
2023-02-16T11:23:25.510Z,8.90
2023-02-16T11:26:05.697Z,9.00
2023-02-16T11:28:45.070Z,9.10
2023-02-16T11:31:32.931Z,9.10
2023-02-16T11:34:23.216Z,9.10
2023-02-16T11:36:50.749Z,9.20
2023-02-16T11:39:30.905Z,9.20
2023-02-16T11:42:01.426Z,9.30
2023-02-16T11:44:34.347Z,9.30
2023-02-16T11:47:07.996Z,9.40
2023-02-16T11:49:41.505Z,9.40
2023-02-16T11:52:25.560Z,9.50
2023-02-16T11:54:56.021Z,9.60
2023-02-16T11:57:28.661Z,9.70
2023-02-16T11:59:57.887Z,9.80
2023-02-16T12:02:37.126Z,9.90
2023-02-16T12:05:24.659Z,10.00
2023-02-16T12:08:10.529Z,10.10
2023-02-16T12:11:15.364Z,10.20
2023-02-16T12:13:57.478Z,10.30
2023-02-16T12:16:50.880Z,10.40
2023-02-16T12:19:44.046Z,10.40
2023-02-16T12:22:41.453Z,10.50
2023-02-16T12:25:23.721Z,10.60
2023-02-16T12:28:13.463Z,10.70
2023-02-16T12:30:49.966Z,10.80
2023-02-16T12:33:27.697Z,10.90
2023-02-16T12:36:01.002Z,11.00
2023-02-16T12:38:49.932Z,11.10
2023-02-16T12:41:56.339Z,11.10
2023-02-16T12:44:32.306Z,11.30
2023-02-16T12:47:06.447Z,11.40
2023-02-16T12:49:55.780Z,11.50
2023-02-16T12:52:29.533Z,11.70
2023-02-16T12:55:12.501Z,11.80
2023-02-16T12:57:57.211Z,12.00
2023-02-16T13:00:58.744Z,12.20
2023-02-16T13:03:32.424Z,12.40
2023-02-16T13:06:22.842Z,12.80
2023-02-16T13:09:02.423Z,13.30
2023-02-16T13:11:52.686Z,14.10
2023-02-16T13:14:31.797Z,15.80
2023-02-16T13:17:09.140Z,18.60
2023-02-16T13:19:36.537Z,21.00
2023-02-16T13:22:33.304Z,22.70
2023-02-16T13:25:21.038Z,25.70
2023-02-16T13:28:34.112Z,27.80
2023-02-16T13:31:22.747Z,30.30
2023-02-16T13:33:58.951Z,31.80
2023-02-16T13:36:49.655Z,33.00
2023-02-16T13:39:46.335Z,31.00
2023-02-16T13:42:25.848Z,31.20
2023-02-16T13:44:57.965Z,31.70
2023-02-16T13:47:39.809Z,32.20
2023-02-16T13:52:43.527Z,33.30
2023-02-16T13:55:33.163Z,31.20
2023-02-16T13:58:02.536Z,31.00
2023-02-16T14:00:42.482Z,31.30
2023-02-16T14:03:12.405Z,30.30
2023-02-16T14:05:45.492Z,29.50
2023-02-16T14:08:15.305Z,28.10
2023-02-16T14:10:54.149Z,28.30
2023-02-16T14:13:34.386Z,28.00
2023-02-16T14:16:10.624Z,28.20
2023-02-16T14:18:47.201Z,28.90
2023-02-16T14:21:33.581Z,29.10
2023-02-16T14:24:03.286Z,28.60
2023-02-16T14:26:32.200Z,29.30
2023-02-16T14:29:19.481Z,29.70
2023-02-16T14:32:12.789Z,29.70
2023-02-16T14:34:45.138Z,28.90
2023-02-16T14:37:15.321Z,28.00
2023-02-16T14:40:06.453Z,27.50
2023-02-16T14:42:34.162Z,27.30
2023-02-16T14:45:26.736Z,26.40
2023-02-16T14:48:21.196Z,25.20
2023-02-16T14:51:19.404Z,23.40
2023-02-16T14:56:42.088Z,20.50
2023-02-16T14:59:18.696Z,19.70
2023-02-16T15:01:47.203Z,19.20
2023-02-16T15:04:31.026Z,18.90
2023-02-16T15:07:03.283Z,18.70
2023-02-16T15:09:33.208Z,18.30
2023-02-16T15:12:23.469Z,18.10
2023-02-16T15:15:00.710Z,17.30
2023-02-16T15:17:38.412Z,17.00
2023-02-16T15:20:25.062Z,16.70
2023-02-16T15:22:57.298Z,16.50
2023-02-16T15:25:29.880Z,16.20
2023-02-16T15:28:04.422Z,16.00
2023-02-16T15:30:34.825Z,15.90
2023-02-16T15:33:05.556Z,15.90
2023-02-16T15:35:41.380Z,15.80
2023-02-16T15:38:22.245Z,15.70
2023-02-16T15:40:58.188Z,15.30
2023-02-16T15:43:37.647Z,15.10
2023-02-16T15:46:07.684Z,14.80
2023-02-16T15:48:36.992Z,14.60
2023-02-16T15:51:28.165Z,14.40
2023-02-16T15:53:57.450Z,14.30
2023-02-16T15:56:47.339Z,14.20
2023-02-16T15:59:22.434Z,14.10
2023-02-16T16:02:11.707Z,13.80
2023-02-16T16:04:54.910Z,13.60
2023-02-16T16:07:39.883Z,13.30
2023-02-16T16:10:33.171Z,13.20
2023-02-16T16:13:09.856Z,13.00
2023-02-16T16:15:41.856Z,12.90
2023-02-16T16:18:39.210Z,12.80
2023-02-16T16:21:29.301Z,12.70
2023-02-16T16:24:08.982Z,12.60
2023-02-16T16:26:52.384Z,12.50
2023-02-16T16:29:47.569Z,12.40
2023-02-16T16:32:25.037Z,12.30
2023-02-16T16:34:52.555Z,12.20
2023-02-16T16:37:23.416Z,12.10
2023-02-16T16:40:20.406Z,12.00
2023-02-16T16:43:03.007Z,12.00
2023-02-16T16:45:33.322Z,12.00
2023-02-16T16:48:02.408Z,11.90
2023-02-16T16:50:38.376Z,11.80
2023-02-16T16:53:31.786Z,11.80
2023-02-16T16:56:01.243Z,11.80
2023-02-16T16:58:29.490Z,11.70
2023-02-16T17:00:56.682Z,11.70
2023-02-16T17:03:24.261Z,11.60
2023-02-16T17:05:51.826Z,11.60
2023-02-16T17:08:19.156Z,11.60
2023-02-16T17:10:46.427Z,11.60
2023-02-16T17:13:21.801Z,11.50
2023-02-16T17:16:07.486Z,11.60
2023-02-16T17:18:35.161Z,11.50
2023-02-16T17:21:02.454Z,11.40
2023-02-16T17:23:29.904Z,11.40
2023-02-16T17:25:57.530Z,11.40
2023-02-16T17:28:25.122Z,11.40
2023-02-16T17:30:52.384Z,11.40
2023-02-16T17:33:20.297Z,11.30
2023-02-16T17:35:47.895Z,11.30
2023-02-16T17:38:20.121Z,11.20
2023-02-16T17:40:52.710Z,11.20
2023-02-16T17:43:21.489Z,11.10
2023-02-16T17:45:49.552Z,11.10
2023-02-16T17:48:20.229Z,11.00
2023-02-16T17:50:49.450Z,11.00
2023-02-16T17:53:21.912Z,11.10
2023-02-16T17:55:52.368Z,11.10
2023-02-16T17:58:21.069Z,11.10
2023-02-16T18:00:48.447Z,11.00
2023-02-16T18:03:15.779Z,10.90
2023-02-16T18:05:43.276Z,10.80
2023-02-16T18:08:12.212Z,10.80
2023-02-16T18:10:45.867Z,10.70
2023-02-16T18:13:14.378Z,10.70
2023-02-16T18:15:45.352Z,10.70
2023-02-16T18:18:13.691Z,10.70
2023-02-16T18:20:41.451Z,10.70
2023-02-16T18:23:09.004Z,10.60
2023-02-16T18:25:39.198Z,10.60
2023-02-16T18:28:06.911Z,10.50
2023-02-16T18:30:34.314Z,10.50
2023-02-16T18:33:01.595Z,10.50
2023-02-16T18:35:32.846Z,10.50
2023-02-16T18:38:00.285Z,10.50
2023-02-16T18:40:27.570Z,10.40
2023-02-16T18:42:54.817Z,10.50
2023-02-16T18:45:22.376Z,10.40
2023-02-16T18:47:56.995Z,10.40
2023-02-16T18:50:24.608Z,10.20
2023-02-16T18:52:51.834Z,10.20
2023-02-16T18:55:19.937Z,10.20
2023-02-16T18:57:47.274Z,10.20
2023-02-16T19:00:15.736Z,10.20
2023-02-16T19:02:46.686Z,10.20
2023-02-16T19:05:14.424Z,10.20
2023-02-16T19:07:42.273Z,10.20
2023-02-16T19:10:10.616Z,10.20
2023-02-16T19:12:40.913Z,10.10
2023-02-16T19:15:09.655Z,10.10
2023-02-16T19:17:38.750Z,10.00
2023-02-16T19:20:10.560Z,10.00
2023-02-16T19:22:38.948Z,10.00
2023-02-16T19:25:07.547Z,10.00
2023-02-16T19:27:35.508Z,10.10
2023-02-16T19:30:03.586Z,10.00
2023-02-16T19:32:32.644Z,9.90
2023-02-16T19:35:00.296Z,9.90
2023-02-16T19:37:27.508Z,9.90
2023-02-16T19:39:54.758Z,9.90
2023-02-16T19:42:22.131Z,9.90
2023-02-16T19:44:49.314Z,9.90
2023-02-16T19:47:16.718Z,9.90
2023-02-16T19:49:44.049Z,9.90
2023-02-16T19:52:11.635Z,9.80
2023-02-16T19:54:38.861Z,9.70
2023-02-16T19:57:06.050Z,9.60
2023-02-16T19:59:35.072Z,9.60
2023-02-16T20:02:03.622Z,9.60
2023-02-16T20:04:30.922Z,9.60
2023-02-16T20:06:58.390Z,9.50
2023-02-16T20:09:25.748Z,9.40
2023-02-16T20:11:53.557Z,9.30
2023-02-16T20:14:21.189Z,9.20
2023-02-16T20:16:50.200Z,9.20
2023-02-16T20:19:17.509Z,9.10
2023-02-16T20:21:46.471Z,9.10
2023-02-16T20:24:14.300Z,9.10
2023-02-16T20:26:44.644Z,9.00
2023-02-16T20:29:16.288Z,9.10
2023-02-16T20:31:52.774Z,9.10
2023-02-16T20:34:23.144Z,9.20
2023-02-16T20:36:50.447Z,9.20
2023-02-16T20:39:18.278Z,9.20
2023-02-16T20:41:45.573Z,9.30
2023-02-16T20:44:13.368Z,9.30
2023-02-16T20:46:41.704Z,9.30
2023-02-16T20:49:09.818Z,9.30
2023-02-16T20:51:37.996Z,9.30
2023-02-16T20:54:05.535Z,9.20
2023-02-16T20:56:32.792Z,9.10
2023-02-16T20:59:01.603Z,9.10
2023-02-16T21:01:34.488Z,9.00
2023-02-16T21:04:04.570Z,9.00
2023-02-16T21:06:31.974Z,9.10
2023-02-16T21:08:59.334Z,9.00
2023-02-16T21:11:27.268Z,8.90
2023-02-16T21:13:54.667Z,8.80
2023-02-16T21:16:22.371Z,8.70
2023-02-16T21:18:49.852Z,8.70
2023-02-16T21:21:17.748Z,8.60
2023-02-16T21:23:48.093Z,8.60
2023-02-16T21:26:16.148Z,8.50
2023-02-16T21:28:43.858Z,8.40
2023-02-16T21:31:13.904Z,8.40
2023-02-16T21:33:41.421Z,8.40
2023-02-16T21:36:12.005Z,8.40
2023-02-16T21:38:41.366Z,8.50
2023-02-16T21:41:29.222Z,8.40
2023-02-16T21:44:00.868Z,8.30
2023-02-16T21:46:31.116Z,8.30
2023-02-16T21:48:58.673Z,8.30
2023-02-16T21:51:28.666Z,8.20
2023-02-16T21:53:56.887Z,8.10
2023-02-16T21:56:34.684Z,8.00
2023-02-16T21:59:02.769Z,7.90
2023-02-16T22:01:35.439Z,7.80
2023-02-16T22:04:31.429Z,7.80
2023-02-16T22:06:58.747Z,7.80
2023-02-16T22:09:25.896Z,7.70
2023-02-16T22:11:53.336Z,7.70
2023-02-16T22:14:20.707Z,7.70
2023-02-16T22:16:48.974Z,7.70
2023-02-16T22:19:18.446Z,7.80
2023-02-16T22:21:47.866Z,7.80
2023-02-16T22:24:17.507Z,7.90
2023-02-16T22:26:46.486Z,7.80
2023-02-16T22:29:13.723Z,7.90
2023-02-16T22:31:45.687Z,7.90
2023-02-16T22:34:15.230Z,7.90
2023-02-16T22:36:42.952Z,7.90
2023-02-16T22:39:12.990Z,7.90
2023-02-16T22:41:40.216Z,7.90
2023-02-16T22:44:07.866Z,7.90
2023-02-16T22:46:35.089Z,7.90
2023-02-16T22:49:02.711Z,7.90
2023-02-16T22:51:31.096Z,7.90
2023-02-16T22:53:59.884Z,7.80
2023-02-16T22:56:27.731Z,7.70
2023-02-16T22:58:57.550Z,7.60
2023-02-16T23:01:26.648Z,7.50
2023-02-16T23:03:57.611Z,7.50
2023-02-16T23:06:36.632Z,7.40
2023-02-16T23:09:09.164Z,7.20
2023-02-16T23:11:36.814Z,7.10
2023-02-16T23:14:04.944Z,7.00
2023-02-16T23:16:32.303Z,7.00
2023-02-16T23:19:00.397Z,7.10
2023-02-16T23:21:30.436Z,7.20
2023-02-16T23:23:58.635Z,7.40
2023-02-16T23:26:31.189Z,7.50
2023-02-16T23:29:02.212Z,7.60
2023-02-16T23:31:34.744Z,7.60
2023-02-16T23:34:03.901Z,7.60
2023-02-16T23:36:32.831Z,7.50
2023-02-16T23:39:01.710Z,7.50
2023-02-16T23:41:29.374Z,7.30
2023-02-16T23:43:56.749Z,7.10
2023-02-16T23:46:23.980Z,7.00
2023-02-16T23:48:51.393Z,6.90
2023-02-16T23:51:18.766Z,6.80
2023-02-16T23:53:45.996Z,6.80
2023-02-16T23:56:19.006Z,6.80
2023-02-16T23:58:46.481Z,6.70
